createdAt,value
2023-05-25T00:01:59.320Z,40.63
2023-05-25T00:04:30.823Z,42.75
2023-05-25T00:06:58.546Z,41.58
2023-05-25T00:09:27.012Z,46.58
2023-05-25T00:11:55.322Z,42.83
2023-05-25T00:14:23.523Z,44.35
2023-05-25T00:16:51.609Z,42.03
2023-05-25T00:19:20.132Z,46.75
2023-05-25T00:21:48.766Z,44.45
2023-05-25T00:24:17.369Z,45.28
2023-05-25T00:26:45.357Z,48.78
2023-05-25T00:29:15.092Z,41.33
2023-05-25T00:31:43.381Z,46.67
2023-05-25T00:34:11.662Z,45.92
2023-05-25T00:36:39.770Z,50.10
2023-05-25T00:39:08.331Z,48.95
2023-05-25T00:41:44.329Z,50.88
2023-05-25T00:44:15.739Z,44.65
2023-05-25T00:46:53.242Z,48.72
2023-05-25T00:49:25.075Z,46.50
2023-05-25T00:51:54.237Z,51.95
2023-05-25T00:54:22.754Z,52.47
2023-05-25T00:56:58.049Z,49.75
2023-05-25T00:59:41.476Z,49.78
2023-05-25T01:02:11.422Z,50.10
2023-05-25T01:04:46.115Z,55.30
2023-05-25T01:07:19.761Z,54.80
2023-05-25T01:09:50.372Z,50.75
2023-05-25T01:12:18.962Z,58.00
2023-05-25T01:14:48.617Z,58.33
2023-05-25T01:17:17.166Z,62.30
2023-05-25T01:19:51.953Z,64.25
2023-05-25T01:22:33.172Z,70.13
2023-05-25T01:25:09.996Z,76.60
2023-05-25T01:27:46.547Z,87.63
2023-05-25T01:30:16.885Z,81.45
2023-05-25T01:32:45.792Z,85.25
2023-05-25T01:35:14.207Z,99.10
2023-05-25T01:37:50.166Z,89.47
2023-05-25T01:40:18.681Z,98.72
2023-05-25T01:42:47.040Z,94.13
2023-05-25T01:45:15.310Z,103.00
2023-05-25T01:48:00.373Z,116.00
2023-05-25T01:50:37.116Z,97.68
2023-05-25T01:53:09.452Z,104.30
2023-05-25T01:55:43.393Z,103.07
2023-05-25T01:58:14.226Z,104.03
2023-05-25T02:00:42.503Z,105.15
2023-05-25T02:03:11.247Z,108.57
2023-05-25T02:05:42.421Z,110.03
2023-05-25T02:08:10.763Z,113.55
2023-05-25T02:10:39.198Z,111.15
2023-05-25T02:13:07.218Z,108.22
2023-05-25T02:15:35.884Z,112.25
2023-05-25T02:18:06.160Z,109.03
2023-05-25T02:20:36.428Z,109.88
2023-05-25T02:23:04.891Z,101.70
2023-05-25T02:25:32.851Z,98.97
2023-05-25T02:28:01.440Z,124.10
2023-05-25T02:30:29.876Z,112.72
2023-05-25T02:32:59.414Z,101.90
2023-05-25T02:35:27.445Z,100.85
2023-05-25T02:37:55.330Z,97.35
2023-05-25T02:40:23.775Z,110.53
2023-05-25T02:42:51.803Z,107.50
2023-05-25T02:45:19.694Z,106.60
2023-05-25T02:47:47.360Z,98.07
2023-05-25T02:50:17.601Z,109.45
2023-05-25T02:52:48.268Z,100.80
2023-05-25T02:55:19.048Z,101.40
2023-05-25T02:57:47.812Z,92.97
2023-05-25T03:00:30.310Z,89.72
2023-05-25T03:02:58.520Z,90.43
2023-05-25T03:05:27.916Z,113.60
2023-05-25T03:07:56.431Z,104.75
2023-05-25T03:10:24.701Z,100.32
2023-05-25T03:12:54.440Z,99.68
2023-05-25T03:15:23.287Z,95.68
2023-05-25T03:17:53.982Z,97.55
2023-05-25T03:20:24.742Z,99.47
2023-05-25T03:22:55.090Z,93.10
2023-05-25T03:25:22.931Z,101.05
2023-05-25T03:27:54.577Z,90.70
2023-05-25T03:30:26.135Z,91.57
2023-05-25T03:32:54.759Z,98.00
2023-05-25T03:35:23.326Z,95.50
2023-05-25T03:37:51.336Z,100.55
2023-05-25T03:40:19.974Z,90.15
2023-05-25T03:42:48.685Z,94.63
2023-05-25T03:45:16.414Z,90.32
2023-05-25T03:47:45.604Z,99.32
2023-05-25T03:50:13.932Z,97.70
2023-05-25T03:52:42.923Z,88.63
2023-05-25T03:55:11.326Z,93.20
2023-05-25T03:57:39.996Z,92.95
2023-05-25T04:00:11.192Z,85.15
2023-05-25T04:02:43.851Z,95.10
2023-05-25T04:05:12.139Z,87.40
2023-05-25T04:07:40.995Z,84.13
2023-05-25T04:10:09.507Z,90.03
2023-05-25T04:12:37.579Z,77.43
2023-05-25T04:15:09.055Z,83.72
2023-05-25T04:17:47.402Z,82.55
2023-05-25T04:20:15.504Z,82.80
2023-05-25T04:22:45.033Z,85.15
2023-05-25T04:25:13.549Z,85.93
2023-05-25T04:27:42.365Z,80.40
2023-05-25T04:30:11.944Z,76.22
2023-05-25T04:32:49.708Z,79.32
2023-05-25T04:35:33.257Z,74.00
2023-05-25T04:38:03.221Z,81.32
2023-05-25T04:40:33.618Z,75.57
2023-05-25T04:43:02.345Z,86.35
2023-05-25T04:45:32.244Z,86.15
2023-05-25T04:48:02.290Z,77.70
2023-05-25T04:50:30.504Z,80.30
2023-05-25T04:52:58.758Z,77.57
2023-05-25T04:55:26.643Z,73.57
2023-05-25T04:57:55.372Z,78.85
2023-05-25T05:00:24.537Z,76.35
2023-05-25T05:05:31.168Z,73.38
2023-05-25T05:08:03.888Z,81.22
2023-05-25T05:10:32.159Z,75.47
2023-05-25T05:13:00.889Z,78.55
2023-05-25T05:15:29.306Z,73.57
2023-05-25T05:17:57.776Z,77.80
2023-05-25T05:20:26.474Z,73.70
2023-05-25T05:22:55.106Z,82.60
2023-05-25T05:25:23.058Z,74.13
2023-05-25T05:27:51.557Z,76.40
2023-05-25T05:30:25.360Z,72.10
2023-05-25T05:32:54.085Z,74.93
2023-05-25T05:35:24.003Z,78.30
2023-05-25T05:37:59.209Z,70.10
2023-05-25T05:40:28.437Z,78.55
2023-05-25T05:42:57.126Z,84.18
2023-05-25T05:45:25.130Z,73.80
2023-05-25T05:47:53.639Z,72.93
2023-05-25T05:50:22.816Z,73.22
2023-05-25T05:52:51.328Z,65.65
2023-05-25T05:55:21.256Z,66.28
2023-05-25T06:00:21.081Z,76.38
2023-05-25T06:02:52.114Z,72.32
2023-05-25T06:05:22.558Z,68.22
2023-05-25T06:07:53.173Z,71.00
2023-05-25T06:10:23.001Z,70.45
2023-05-25T06:12:53.333Z,76.50
2023-05-25T06:15:22.384Z,67.47
2023-05-25T06:17:53.083Z,67.60
2023-05-25T06:20:22.497Z,77.63
2023-05-25T06:22:51.153Z,72.10
2023-05-25T06:25:20.767Z,82.85
2023-05-25T06:27:49.055Z,73.65
2023-05-25T06:30:17.279Z,80.03
2023-05-25T06:32:46.061Z,84.25
2023-05-25T06:35:19.925Z,84.50
2023-05-25T06:37:52.578Z,80.70
2023-05-25T06:40:22.573Z,81.00
2023-05-25T06:42:55.566Z,76.65
2023-05-25T06:45:43.476Z,80.45
2023-05-25T06:48:11.930Z,83.82
2023-05-25T06:50:40.481Z,84.18
2023-05-25T06:53:08.992Z,81.60
2023-05-25T06:55:37.090Z,73.05
2023-05-25T06:58:05.392Z,74.60
2023-05-25T07:00:33.271Z,78.82
2023-05-25T07:03:01.965Z,80.63
2023-05-25T07:05:30.146Z,75.38
2023-05-25T07:07:58.373Z,79.90
2023-05-25T07:10:26.384Z,78.10
2023-05-25T07:12:54.835Z,74.63
2023-05-25T07:15:23.420Z,81.15
2023-05-25T07:17:51.563Z,78.15
2023-05-25T07:20:19.475Z,71.68
2023-05-25T07:22:48.108Z,74.55
2023-05-25T07:25:16.487Z,77.15
2023-05-25T07:27:48.843Z,78.90
2023-05-25T07:30:17.273Z,80.23
2023-05-25T07:32:46.041Z,86.70
2023-05-25T07:35:13.929Z,79.43
2023-05-25T07:37:42.441Z,77.15
2023-05-25T07:40:11.152Z,68.30
2023-05-25T07:42:39.319Z,74.88
2023-05-25T07:45:08.019Z,62.80
2023-05-25T07:47:37.306Z,61.08
2023-05-25T07:50:05.792Z,66.53
2023-05-25T07:52:34.185Z,64.78
2023-05-25T07:55:02.291Z,68.50
2023-05-25T07:57:30.423Z,61.72
2023-05-25T07:59:58.324Z,68.20
2023-05-25T08:02:26.984Z,65.70
2023-05-25T08:04:55.068Z,72.57
2023-05-25T08:07:25.101Z,60.83
2023-05-25T08:09:53.328Z,56.85
2023-05-25T08:12:38.463Z,66.15
2023-05-25T08:15:10.097Z,55.88
2023-05-25T08:17:38.239Z,56.97
2023-05-25T08:20:09.252Z,53.78
2023-05-25T08:22:37.956Z,59.42
2023-05-25T08:25:07.316Z,52.40
2023-05-25T08:27:36.575Z,56.70
2023-05-25T08:30:08.786Z,48.55
2023-05-25T08:32:37.440Z,53.20
2023-05-25T08:35:05.839Z,48.35
2023-05-25T08:37:34.790Z,48.63
2023-05-25T08:40:03.114Z,44.92
2023-05-25T08:42:31.490Z,42.35
2023-05-25T08:44:59.896Z,41.42
2023-05-25T08:47:33.960Z,45.13
2023-05-25T08:50:04.202Z,40.00
2023-05-25T08:52:34.010Z,39.05
2023-05-25T08:55:05.644Z,35.17
2023-05-25T08:57:44.489Z,38.95
2023-05-25T09:00:15.721Z,44.08
2023-05-25T09:03:02.177Z,34.75
2023-05-25T09:05:30.091Z,35.00
2023-05-25T09:07:59.056Z,32.83
2023-05-25T09:10:28.160Z,30.95
2023-05-25T09:12:57.701Z,33.00
2023-05-25T09:15:25.792Z,29.42
2023-05-25T09:17:54.156Z,34.88
2023-05-25T09:20:22.379Z,29.40
2023-05-25T09:22:50.533Z,33.15
2023-05-25T09:25:22.524Z,34.67
2023-05-25T09:27:51.209Z,28.38
2023-05-25T09:30:19.104Z,27.98
2023-05-25T09:32:47.203Z,26.20
2023-05-25T09:35:16.028Z,25.73
2023-05-25T09:37:45.642Z,26.05
2023-05-25T09:40:15.543Z,29.05
2023-05-25T09:42:45.870Z,27.92
2023-05-25T09:45:13.794Z,27.73
2023-05-25T09:47:42.417Z,24.77
2023-05-25T09:50:11.984Z,23.85
2023-05-25T09:52:40.164Z,25.45
2023-05-25T09:55:10.842Z,25.23
2023-05-25T09:57:39.356Z,35.58
2023-05-25T10:00:09.966Z,25.65
2023-05-25T10:02:42.267Z,25.38
2023-05-25T10:05:10.429Z,24.98
2023-05-25T10:07:40.766Z,23.27
2023-05-25T10:10:09.031Z,25.55
2023-05-25T10:12:38.239Z,24.50
2023-05-25T10:15:07.800Z,24.70
2023-05-25T10:17:36.959Z,22.85
2023-05-25T10:20:08.275Z,26.98
2023-05-25T10:22:41.755Z,24.67
2023-05-25T10:28:07.513Z,20.42
2023-05-25T10:30:37.475Z,27.20
2023-05-25T10:33:06.965Z,29.23
2023-05-25T10:35:46.767Z,25.48
2023-05-25T10:38:31.727Z,33.38
2023-05-25T10:41:00.272Z,27.20
2023-05-25T10:43:28.860Z,26.30
2023-05-25T10:45:57.611Z,27.38
2023-05-25T10:48:36.764Z,28.98
2023-05-25T10:51:05.373Z,26.85
2023-05-25T10:53:34.153Z,26.42
2023-05-25T10:56:07.727Z,27.20
2023-05-25T10:58:36.851Z,28.60
2023-05-25T11:01:09.364Z,34.58
2023-05-25T11:04:16.343Z,39.22
2023-05-25T11:06:47.771Z,31.08
2023-05-25T11:09:27.243Z,37.03
2023-05-25T11:12:02.185Z,30.88
2023-05-25T11:14:31.962Z,29.55
2023-05-25T11:17:15.789Z,27.58
2023-05-25T11:19:44.844Z,28.65
2023-05-25T11:22:24.550Z,26.35
2023-05-25T11:24:54.193Z,26.33
2023-05-25T11:27:25.959Z,37.05
2023-05-25T11:29:56.822Z,25.90
2023-05-25T11:32:29.127Z,28.45
2023-05-25T11:37:31.908Z,29.42
2023-05-25T11:40:00.259Z,26.52
2023-05-25T11:42:28.686Z,24.00
2023-05-25T11:44:57.489Z,28.00
2023-05-25T11:47:26.149Z,29.88
2023-05-25T11:49:56.889Z,34.05
2023-05-25T11:52:24.696Z,25.33
2023-05-25T11:54:53.519Z,23.50
2023-05-25T11:57:25.476Z,25.75
2023-05-25T11:59:56.183Z,30.02
2023-05-25T12:02:24.532Z,26.33
2023-05-25T12:04:57.611Z,22.17
2023-05-25T12:07:26.735Z,27.20
2023-05-25T12:10:15.377Z,23.92
2023-05-25T12:12:44.756Z,26.88
2023-05-25T12:15:20.485Z,24.05
2023-05-25T12:17:49.434Z,23.55
2023-05-25T12:20:19.445Z,26.55
2023-05-25T12:22:47.661Z,22.73
2023-05-25T12:25:20.045Z,31.08
2023-05-25T12:27:48.055Z,20.93
2023-05-25T12:30:16.605Z,24.83
2023-05-25T12:33:14.864Z,19.13
2023-05-25T12:35:47.988Z,19.90
2023-05-25T12:38:18.051Z,19.25
2023-05-25T12:40:46.709Z,20.25
2023-05-25T12:43:15.437Z,23.55
2023-05-25T12:45:44.040Z,20.42
2023-05-25T12:48:12.290Z,25.90
2023-05-25T12:50:57.989Z,20.48
2023-05-25T12:53:27.665Z,21.23
2023-05-25T12:56:03.649Z,17.88
2023-05-25T12:58:31.888Z,20.83
2023-05-25T13:01:01.134Z,19.70
2023-05-25T13:03:29.508Z,20.25
2023-05-25T13:06:02.732Z,21.10
2023-05-25T13:08:30.658Z,20.45
2023-05-25T13:10:59.484Z,21.60
2023-05-25T13:13:27.548Z,19.02
2023-05-25T13:15:55.985Z,26.45
2023-05-25T13:18:23.832Z,17.20
2023-05-25T13:20:54.306Z,18.02
2023-05-25T13:23:24.634Z,17.83
2023-05-25T13:25:52.975Z,19.60
2023-05-25T13:28:21.012Z,25.90
2023-05-25T13:30:49.475Z,21.20
2023-05-25T13:33:17.742Z,23.02
2023-05-25T13:35:58.823Z,20.15
2023-05-25T13:38:27.455Z,21.00
2023-05-25T13:40:57.540Z,21.90
2023-05-25T13:43:25.962Z,17.95
2023-05-25T13:45:54.882Z,18.48
2023-05-25T13:48:23.159Z,17.95
2023-05-25T13:50:52.088Z,17.95
2023-05-25T13:53:20.034Z,19.15
2023-05-25T13:55:49.305Z,13.52
2023-05-25T13:58:17.620Z,17.02
2023-05-25T14:00:46.013Z,16.15
2023-05-25T14:03:14.479Z,16.77
2023-05-25T14:05:43.710Z,15.50
2023-05-25T14:08:12.878Z,20.55
2023-05-25T14:10:41.376Z,24.83
2023-05-25T14:13:09.197Z,19.20
2023-05-25T14:15:37.806Z,17.85
2023-05-25T14:18:06.060Z,15.70
2023-05-25T14:20:37.394Z,14.18
2023-05-25T14:23:08.735Z,18.42
2023-05-25T14:25:38.638Z,15.13
2023-05-25T14:28:06.496Z,18.55
2023-05-25T14:30:34.854Z,21.00
2023-05-25T14:33:02.650Z,13.20
2023-05-25T14:35:31.359Z,18.13
2023-05-25T14:37:59.347Z,15.65
2023-05-25T14:40:27.728Z,15.77
2023-05-25T14:42:55.925Z,14.48
2023-05-25T14:45:24.289Z,15.05
2023-05-25T14:48:00.786Z,15.07
2023-05-25T14:50:36.486Z,16.75
2023-05-25T14:53:04.215Z,19.33
2023-05-25T14:55:32.839Z,14.32
2023-05-25T14:58:00.663Z,17.20
2023-05-25T15:00:29.449Z,14.10
2023-05-25T15:02:57.427Z,13.35
2023-05-25T15:05:26.624Z,13.02
2023-05-25T15:07:54.476Z,17.80
2023-05-25T15:10:23.143Z,15.48
2023-05-25T15:12:50.839Z,13.48
2023-05-25T15:15:19.031Z,25.50
2023-05-25T15:17:47.143Z,13.20
2023-05-25T15:20:15.635Z,14.23
2023-05-25T15:22:43.617Z,15.25
2023-05-25T15:25:13.639Z,15.45
2023-05-25T15:30:13.261Z,15.45
2023-05-25T15:32:41.232Z,26.27
2023-05-25T15:35:09.992Z,18.92
2023-05-25T15:37:38.268Z,19.63
2023-05-25T15:40:07.301Z,13.63
2023-05-25T15:42:35.409Z,14.98
2023-05-25T15:45:03.814Z,14.60
2023-05-25T15:47:31.850Z,12.52
2023-05-25T15:49:59.934Z,14.48
2023-05-25T15:52:27.841Z,10.80
2023-05-25T15:54:56.446Z,18.35
2023-05-25T15:57:24.515Z,17.63
2023-05-25T15:59:52.863Z,17.00
2023-05-25T16:02:20.949Z,12.27
2023-05-25T16:04:49.632Z,11.40
2023-05-25T16:07:17.660Z,12.05
2023-05-25T16:09:46.573Z,14.88
2023-05-25T16:12:14.531Z,14.18
2023-05-25T16:14:43.115Z,12.73
2023-05-25T16:17:11.950Z,14.13
2023-05-25T16:19:40.165Z,15.05
2023-05-25T16:22:07.972Z,21.15
2023-05-25T16:24:36.317Z,17.25
2023-05-25T16:27:04.909Z,12.98
2023-05-25T16:29:33.405Z,20.08
2023-05-25T16:32:01.503Z,15.73
2023-05-25T16:34:29.942Z,14.73
2023-05-25T16:36:57.942Z,16.90
2023-05-25T16:39:26.583Z,12.65
2023-05-25T16:41:54.655Z,13.38
2023-05-25T16:44:24.099Z,14.65
2023-05-25T16:46:52.048Z,15.15
2023-05-25T16:49:20.279Z,22.25
2023-05-25T16:51:48.088Z,14.27
2023-05-25T16:54:16.969Z,12.77
2023-05-25T16:56:44.925Z,15.68
2023-05-25T16:59:12.964Z,23.15
2023-05-25T17:01:40.870Z,13.82
2023-05-25T17:04:09.310Z,11.13
2023-05-25T17:06:37.908Z,14.75
2023-05-25T17:09:06.159Z,20.13
2023-05-25T17:11:34.036Z,14.88
2023-05-25T17:14:02.543Z,13.65
2023-05-25T17:16:30.410Z,16.88
2023-05-25T17:18:59.030Z,20.02
2023-05-25T17:21:27.239Z,15.70
2023-05-25T17:23:55.850Z,16.20
2023-05-25T17:26:23.637Z,16.52
2023-05-25T17:28:52.267Z,14.75
2023-05-25T17:31:20.226Z,20.55
2023-05-25T17:33:48.521Z,13.32
2023-05-25T17:36:16.384Z,19.50
2023-05-25T17:38:45.137Z,16.08
2023-05-25T17:41:13.174Z,16.58
2023-05-25T17:43:41.875Z,16.90
2023-05-25T17:46:09.994Z,15.35
2023-05-25T17:48:38.317Z,16.30
2023-05-25T17:51:05.989Z,19.38
2023-05-25T17:53:34.483Z,18.23
2023-05-25T17:56:02.424Z,17.45
2023-05-25T17:58:31.022Z,19.50
2023-05-25T18:00:59.048Z,21.00
2023-05-25T18:03:27.684Z,20.75
2023-05-25T18:05:56.022Z,68.28
2023-05-25T18:08:24.817Z,44.85
2023-05-25T18:10:53.395Z,47.67
2023-05-25T18:13:21.386Z,48.55
2023-05-25T18:15:49.868Z,50.38
2023-05-25T18:18:20.889Z,31.58
2023-05-25T18:20:48.998Z,26.83
2023-05-25T18:23:17.028Z,30.38
2023-05-25T18:25:46.216Z,31.25
2023-05-25T18:28:15.429Z,19.58
2023-05-25T18:30:43.400Z,19.60
2023-05-25T18:33:11.780Z,14.35
2023-05-25T18:35:39.661Z,21.27
2023-05-25T18:38:08.064Z,18.42
2023-05-25T18:40:35.810Z,18.40
2023-05-25T18:43:03.958Z,23.60
2023-05-25T18:45:32.098Z,17.77
2023-05-25T18:48:07.787Z,22.05
2023-05-25T18:50:37.805Z,17.45
2023-05-25T18:53:08.325Z,18.48
2023-05-25T18:55:36.474Z,15.60
2023-05-25T18:58:05.141Z,18.25
2023-05-25T19:00:33.296Z,21.95
2023-05-25T19:03:01.700Z,23.35
2023-05-25T19:05:29.729Z,18.55
2023-05-25T19:08:00.125Z,18.60
2023-05-25T19:10:28.448Z,17.10
2023-05-25T19:12:57.494Z,21.35
2023-05-25T19:15:25.563Z,13.27
2023-05-25T19:17:54.231Z,16.58
2023-05-25T19:20:22.500Z,21.85
2023-05-25T19:22:50.806Z,20.15
2023-05-25T19:25:18.944Z,18.20
2023-05-25T19:27:47.029Z,15.35
2023-05-25T19:30:14.989Z,15.55
2023-05-25T19:32:43.756Z,17.38
2023-05-25T19:35:12.197Z,24.10
2023-05-25T19:37:46.701Z,19.55
2023-05-25T19:40:14.595Z,16.60
2023-05-25T19:42:43.008Z,16.13
2023-05-25T19:45:11.864Z,19.58
2023-05-25T19:47:40.829Z,17.70
2023-05-25T19:50:09.316Z,24.60
2023-05-25T19:52:37.966Z,24.45
2023-05-25T19:55:06.747Z,94.57
2023-05-25T19:57:35.428Z,67.93
2023-05-25T20:00:05.957Z,148.98
2023-05-25T20:02:40.101Z,101.40
2023-05-25T20:05:08.240Z,38.13
2023-05-25T20:07:36.974Z,23.17
2023-05-25T20:10:06.670Z,21.48
2023-05-25T20:12:35.305Z,28.20
2023-05-25T20:15:03.124Z,59.60
2023-05-25T20:17:32.202Z,43.60
2023-05-25T20:20:01.319Z,25.30
2023-05-25T20:22:30.020Z,29.15
2023-05-25T20:25:01.631Z,28.80
2023-05-25T20:27:30.472Z,24.13
2023-05-25T20:29:58.694Z,32.80
2023-05-25T20:32:26.985Z,27.73
2023-05-25T20:34:55.438Z,29.05
2023-05-25T20:37:23.618Z,22.90
2023-05-25T20:39:51.897Z,23.42
2023-05-25T20:42:20.370Z,26.75
2023-05-25T20:44:48.335Z,26.02
2023-05-25T20:47:16.310Z,18.20
2023-05-25T20:49:44.260Z,24.83
2023-05-25T20:52:12.856Z,27.75
2023-05-25T20:54:45.238Z,21.73
2023-05-25T20:57:13.940Z,28.90
2023-05-25T20:59:41.866Z,32.25
2023-05-25T21:02:10.351Z,31.00
2023-05-25T21:04:38.587Z,28.55
2023-05-25T21:07:06.780Z,25.70
2023-05-25T21:09:34.818Z,20.85
2023-05-25T21:12:04.024Z,18.92
2023-05-25T21:14:32.021Z,20.80
2023-05-25T21:17:00.414Z,21.08
2023-05-25T21:19:28.281Z,19.23
2023-05-25T21:21:56.933Z,18.02
2023-05-25T21:24:24.740Z,16.08
2023-05-25T21:26:53.004Z,18.75
2023-05-25T21:29:20.810Z,20.38
2023-05-25T21:31:49.296Z,20.77
2023-05-25T21:34:17.284Z,21.35
2023-05-25T21:36:45.522Z,21.42
2023-05-25T21:39:13.176Z,20.52
2023-05-25T21:41:42.328Z,24.65
2023-05-25T21:44:10.836Z,20.10
2023-05-25T21:46:39.773Z,25.77
2023-05-25T21:49:07.980Z,22.02
2023-05-25T21:51:37.023Z,20.35
2023-05-25T21:54:05.845Z,22.35
2023-05-25T21:56:33.832Z,20.48
2023-05-25T21:59:02.160Z,21.85
2023-05-25T22:01:30.235Z,19.77
2023-05-25T22:03:58.532Z,19.75
2023-05-25T22:06:27.351Z,18.98
2023-05-25T22:08:55.068Z,17.88
2023-05-25T22:11:23.122Z,17.98
2023-05-25T22:13:51.522Z,17.10
2023-05-25T22:16:20.393Z,12.75
2023-05-25T22:18:48.421Z,15.13
2023-05-25T22:21:16.663Z,12.60
2023-05-25T22:23:44.559Z,12.18
2023-05-25T22:26:12.931Z,12.05
2023-05-25T22:28:40.681Z,15.43
2023-05-25T22:31:11.697Z,14.40
2023-05-25T22:33:39.893Z,13.65
2023-05-25T22:36:08.096Z,16.33
2023-05-25T22:38:36.015Z,15.60
2023-05-25T22:41:04.402Z,15.57
2023-05-25T22:43:32.445Z,20.58
2023-05-25T22:46:00.744Z,25.42
2023-05-25T22:48:28.465Z,19.05
2023-05-25T22:50:56.724Z,15.48
2023-05-25T22:53:24.726Z,15.60
2023-05-25T22:55:53.148Z,14.85
2023-05-25T22:58:23.360Z,16.73
2023-05-25T23:00:51.623Z,15.68
2023-05-25T23:03:19.670Z,18.42
2023-05-25T23:05:48.025Z,18.20
2023-05-25T23:08:15.899Z,17.52
2023-05-25T23:10:44.353Z,19.50
2023-05-25T23:13:14.653Z,20.05
2023-05-25T23:15:44.536Z,24.75
2023-05-25T23:18:12.711Z,18.00
2023-05-25T23:20:41.357Z,19.60
2023-05-25T23:23:09.424Z,20.02
2023-05-25T23:25:37.746Z,18.17
2023-05-25T23:28:05.814Z,17.45
2023-05-25T23:30:34.204Z,21.10
2023-05-25T23:33:01.953Z,20.92
2023-05-25T23:35:30.834Z,19.55
2023-05-25T23:37:58.948Z,17.58
2023-05-25T23:40:27.403Z,17.88
2023-05-25T23:42:55.296Z,17.98
2023-05-25T23:45:23.955Z,17.52
2023-05-25T23:47:52.058Z,18.85
2023-05-25T23:50:20.488Z,17.30
2023-05-25T23:52:48.585Z,15.50
2023-05-25T23:55:16.877Z,15.27
2023-05-25T23:57:45.264Z,14.23
